Time;durP1;ratioP1;P1;durP2;ratioP2;P2;SDS_P1;SDS_P2;PMS_P1;PMS_P2;Temp;Humidity;BMP_temperature;BMP_pressure;BME280_temperature;BME280_humidity;BME280_pressure;Samples;Min_cycle;Max_cycle;Signal;HPM_P1;HPM_P2
2021/01/22 00:00:43;;;;;;;7.10;1.05;;;17.90;35.20;;;;;;5011485;28;20026;-78
2021/01/22 00:03:10;;;;;;;11.93;1.63;;;17.50;36.40;;;;;;5012935;28;20034;-76
2021/01/22 00:05:37;;;;;;;9.35;1.63;;;16.70;38.50;;;;;;5012032;28;20032;-76
2021/01/22 00:08:04;;;;;;;10.52;1.58;;;16.50;42.00;;;;;;5012695;28;20508;-78
2021/01/22 00:10:31;;;;;;;3.90;1.10;;;16.50;46.10;;;;;;5012155;28;20082;-78
2021/01/22 00:12:58;;;;;;;8.93;1.65;;;16.60;39.80;;;;;;5011809;28;20037;-74
2021/01/22 00:15:25;;;;;;;8.23;1.77;;;17.00;44.80;;;;;;5012013;28;20041;-75
2021/01/22 00:17:52;;;;;;;17.60;2.33;;;17.20;44.80;;;;;;5012293;28;20041;-75
2021/01/22 00:20:19;;;;;;;8.10;1.45;;;16.70;39.70;;;;;;5012477;28;20037;-76
2021/01/22 00:22:46;;;;;;;4.18;1.00;;;16.20;42.40;;;;;;5012183;28;20033;-74
2021/01/22 00:25:13;;;;;;;7.85;1.40;;;15.70;41.90;;;;;;5012596;28;20035;-75
2021/01/22 00:27:40;;;;;;;7.22;1.30;;;15.20;41.70;;;;;;5013696;28;20679;-79
2021/01/22 00:30:10;;;;;;;7.93;1.10;;;15.40;44.10;;;;;;5012596;28;20061;-76
2021/01/22 00:32:37;;;;;;;8.48;1.60;;;15.40;43.90;;;;;;5012143;28;20037;-77
2021/01/22 00:35:06;;;;;;;7.28;1.23;;;15.10;39.90;;;;;;5012109;28;20042;-76
2021/01/22 00:37:33;;;;;;;9.07;1.50;;;14.60;42.70;;;;;;5011921;28;20030;-75
2021/01/22 00:40:00;;;;;;;7.32;1.50;;;14.50;44.70;;;;;;5012140;28;20022;-77
2021/01/22 00:42:27;;;;;;;12.50;1.90;;;14.10;48.00;;;;;;5012241;28;20025;-77
2021/01/22 00:44:54;;;;;;;14.77;2.88;;;13.80;49.60;;;;;;5002743;28;20046;-76
2021/01/22 00:47:20;;;;;;;16.45;2.80;;;13.30;58.40;;;;;;5008433;28;20057;-75
2021/01/22 00:49:50;;;;;;;11.45;2.75;;;12.80;62.80;;;;;;5011868;28;20108;-74
2021/01/22 00:52:17;;;;;;;17.58;3.30;;;12.60;64.60;;;;;;5011964;28;20033;-76
2021/01/22 00:54:44;;;;;;;17.33;2.88;;;12.00;67.70;;;;;;5011819;28;20026;-74
2021/01/22 00:57:11;;;;;;;18.67;2.63;;;11.60;69.60;;;;;;4992565;28;20065;-75
2021/01/22 00:59:38;;;;;;;22.98;3.45;;;11.30;70.70;;;;;;5011766;28;20030;-79
2021/01/22 01:02:05;;;;;;;14.88;2.83;;;11.00;71.80;;;;;;5011863;28;20026;-80
2021/01/22 01:04:32;;;;;;;14.85;1.83;;;10.90;71.00;;;;;;5011755;28;20032;-78
2021/01/22 01:06:59;;;;;;;10.25;2.50;;;10.80;68.50;;;;;;5011056;28;20395;-81
2021/01/22 01:09:26;;;;;;;14.68;2.40;;;10.70;69.00;;;;;;5011494;28;20033;-77
2021/01/22 01:11:52;;;;;;;9.27;2.58;;;10.50;68.60;;;;;;5007098;28;20034;-81
2021/01/22 01:14:19;;;;;;;6.43;1.58;;;10.40;65.00;;;;;;5015027;28;20037;-81
2021/01/22 01:16:46;;;;;;;9.23;1.95;;;10.40;62.90;;;;;;5016010;28;20041;-77
2021/01/22 01:19:13;;;;;;;10.60;2.38;;;10.30;64.30;;;;;;5015909;28;20381;-79
2021/01/22 01:21:40;;;;;;;12.73;2.58;;;10.30;66.20;;;;;;5018900;28;20037;-81
2021/01/22 01:24:08;;;;;;;12.95;1.90;;;10.10;67.80;;;;;;5017697;28;20030;-80
2021/01/22 01:26:35;;;;;;;11.20;2.35;;;10.00;66.60;;;;;;5015597;28;20029;-77
2021/01/22 01:29:02;;;;;;;12.63;2.55;;;9.80;74.20;;;;;;5014947;28;20033;-77
2021/01/22 01:31:28;;;;;;;15.95;2.50;;;9.70;77.00;;;;;;5014682;28;20042;-75
2021/01/22 01:33:56;;;;;;;12.75;1.98;;;9.60;77.70;;;;;;5014794;28;20042;-77
2021/01/22 01:36:22;;;;;;;21.33;2.83;;;9.50;77.10;;;;;;4997267;28;20050;-77
2021/01/22 01:38:52;;;;;;;10.48;3.03;;;9.40;77.80;;;;;;5013622;28;20042;-77
2021/01/22 01:41:19;;;;;;;13.38;2.92;;;9.30;81.70;;;;;;5015224;28;20474;-77
2021/01/22 01:43:46;;;;;;;14.55;3.70;;;9.10;85.10;;;;;;5015157;28;20037;-77
2021/01/22 01:46:14;;;;;;;11.80;2.70;;;9.10;86.20;;;;;;5015158;28;20061;-77
2021/01/22 01:48:40;;;;;;;11.38;2.05;;;9.00;83.50;;;;;;5014210;28;20053;-76
2021/01/22 01:51:08;;;;;;;7.57;2.22;;;9.00;81.50;;;;;;5014812;28;20057;-76
2021/01/22 01:53:35;;;;;;;9.10;1.83;;;9.10;80.50;;;;;;5014722;28;20037;-81
2021/01/22 01:56:02;;;;;;;8.63;1.60;;;9.00;79.20;;;;;;5014073;28;20117;-77
2021/01/22 01:58:30;;;;;;;9.45;2.47;;;9.00;80.40;;;;;;5014320;28;20026;-78
2021/01/22 02:00:57;;;;;;;13.50;2.53;;;9.00;82.50;;;;;;5015015;28;20041;-77
2021/01/22 02:03:24;;;;;;;10.52;1.95;;;8.90;81.90;;;;;;5014800;28;20194;-78
2021/01/22 02:05:51;;;;;;;10.30;2.03;;;8.80;80.00;;;;;;5016205;28;20034;-78
2021/01/22 02:08:19;;;;;;;16.88;2.78;;;8.80;80.50;;;;;;5010902;28;20042;-76
2021/01/22 02:10:47;;;;;;;7.95;1.73;;;8.80;80.90;;;;;;5011983;28;20030;-77
2021/01/22 02:13:15;;;;;;;10.35;2.03;;;8.70;79.70;;;;;;5014670;28;20036;-76
2021/01/22 02:15:42;;;;;;;17.55;2.25;;;8.70;82.30;;;;;;5014186;28;20030;-76
2021/01/22 02:18:10;;;;;;;18.25;3.33;;;8.70;83.00;;;;;;5013875;28;20065;-76
2021/01/22 02:20:56;;;;;;;9.95;2.95;;;8.70;86.90;;;;;;5013644;28;20038;-76
2021/01/22 02:23:25;;;;;;;16.50;2.88;;;8.50;90.20;;;;;;4994137;28;20026;-76
2021/01/22 02:26:01;;;;;;;11.93;3.50;;;8.40;91.70;;;;;;4994568;28;20030;-77
2021/01/22 02:28:29;;;;;;;13.25;2.70;;;8.40;92.60;;;;;;4994913;28;20054;-77
2021/01/22 02:30:57;;;;;;;14.07;3.13;;;8.30;92.60;;;;;;5004274;28;20022;-76
2021/01/22 02:33:24;;;;;;;12.93;3.35;;;8.30;92.40;;;;;;5013139;28;20038;-76
2021/01/22 02:35:55;;;;;;;16.10;4.32;;;8.30;93.40;;;;;;5012503;28;20034;-76
2021/01/22 02:38:24;;;;;;;12.35;3.78;;;8.20;94.20;;;;;;5014264;28;20061;-76
2021/01/22 02:40:57;;;;;;;15.02;3.97;;;8.20;94.60;;;;;;5012946;28;20041;-77
2021/01/22 02:43:27;;;;;;;16.30;4.82;;;8.20;95.00;;;;;;5013051;28;20038;-76
2021/01/22 02:45:56;;;;;;;11.10;4.28;;;8.10;96.10;;;;;;5013824;28;20502;-76
2021/01/22 02:48:23;;;;;;;17.58;3.50;;;8.10;96.60;;;;;;5013168;28;20057;-77
2021/01/22 02:50:50;;;;;;;12.48;3.38;;;8.00;97.20;;;;;;5013890;28;20379;-75
2021/01/22 02:53:17;;;;;;;15.63;3.33;;;7.90;97.20;;;;;;5013945;28;20037;-76
2021/01/22 02:55:44;;;;;;;20.10;3.55;;;8.00;97.90;;;;;;5013945;28;20049;-76
2021/01/22 02:58:26;;;;;;;21.33;5.70;;;7.90;99.10;;;;;;5013748;28;20022;-76
2021/01/22 03:01:01;;;;;;;21.58;4.28;;;7.80;99.10;;;;;;5013592;28;20382;-77
2021/01/22 03:03:41;;;;;;;16.35;4.72;;;7.70;99.80;;;;;;4994116;28;20049;-75
2021/01/22 03:06:14;;;;;;;18.00;3.85;;;7.70;99.90;;;;;;4994450;28;20031;-75
2021/01/22 03:08:42;;;;;;;11.82;3.38;;;7.70;99.90;;;;;;4994305;28;20622;-76
2021/01/22 03:11:11;;;;;;;16.85;4.20;;;7.60;99.90;;;;;;4994301;28;20037;-75
2021/01/22 03:13:39;;;;;;;17.52;6.43;;;7.50;99.90;;;;;;5012246;28;20027;-75
2021/01/22 03:16:07;;;;;;;10.13;4.40;;;7.50;99.90;;;;;;5013002;28;20052;-76
2021/01/22 03:18:34;;;;;;;10.93;3.72;;;7.50;99.90;;;;;;5013578;28;20374;-76
2021/01/22 03:21:09;;;;;;;16.25;3.00;;;7.40;99.90;;;;;;5013373;28;20034;-76
2021/01/22 03:23:36;;;;;;;14.18;4.07;;;7.40;99.90;;;;;;5010710;28;20022;-75
2021/01/22 03:26:03;;;;;;;19.83;3.53;;;7.40;99.90;;;;;;5002647;28;20030;-76
2021/01/22 03:28:30;;;;;;;13.70;3.22;;;7.30;99.90;;;;;;4993830;28;20089;-75
2021/01/22 03:30:56;;;;;;;7.40;2.90;;;7.40;99.90;;;;;;4993277;28;20053;-75
2021/01/22 03:33:23;;;;;;;13.77;3.13;;;7.30;99.90;;;;;;5001815;28;20030;-76
2021/01/22 03:35:50;;;;;;;10.32;2.17;;;7.30;99.90;;;;;;5012847;28;20034;-77
2021/01/22 03:38:17;;;;;;;10.70;1.65;;;7.30;99.90;;;;;;5013324;28;20034;-77
2021/01/22 03:40:44;;;;;;;13.57;2.28;;;7.30;99.90;;;;;;5013525;28;20030;-77
2021/01/22 03:43:11;;;;;;;17.85;4.38;;;7.30;99.90;;;;;;5011894;28;20026;-76
2021/01/22 03:45:38;;;;;;;18.85;2.47;;;7.30;99.90;;;;;;5012895;28;20073;-76
2021/01/22 03:48:05;;;;;;;22.88;5.97;;;7.30;99.90;;;;;;5008644;28;20375;-76
2021/01/22 03:50:32;;;;;;;13.50;3.17;;;7.20;99.90;;;;;;5013229;28;20383;-76
2021/01/22 03:52:59;;;;;;;11.45;2.80;;;7.20;99.90;;;;;;5012748;28;20497;-76
2021/01/22 03:55:26;;;;;;;12.85;2.80;;;7.20;99.90;;;;;;5012777;28;20053;-77
2021/01/22 03:57:53;;;;;;;7.95;2.03;;;7.20;99.90;;;;;;5012821;28;20045;-76
2021/01/22 04:00:20;;;;;;;11.43;2.15;;;7.20;99.90;;;;;;5012053;28;20052;-76
2021/01/22 04:02:47;;;;;;;9.15;2.47;;;7.10;99.90;;;;;;5009111;28;20037;-76
2021/01/22 04:05:14;;;;;;;14.80;2.75;;;7.20;99.90;;;;;;5012328;28;20026;-76
2021/01/22 04:07:41;;;;;;;16.33;2.60;;;7.20;99.90;;;;;;4994413;28;20042;-76
2021/01/22 04:10:08;;;;;;;16.20;2.97;;;7.20;99.90;;;;;;5012083;28;20041;-78
2021/01/22 04:12:37;;;;;;;19.83;2.70;;;7.20;99.90;;;;;;5011069;28;20053;-76
2021/01/22 04:15:06;;;;;;;14.43;3.53;;;7.10;99.90;;;;;;5012326;28;20030;-76
2021/01/22 04:17:33;;;;;;;12.45;2.88;;;7.20;99.90;;;;;;5011649;28;20060;-76
2021/01/22 04:20:01;;;;;;;19.33;3.10;;;7.20;99.90;;;;;;5012354;28;20026;-77
2021/01/22 04:22:28;;;;;;;10.43;2.65;;;7.10;99.90;;;;;;5011321;28;20049;-76
2021/01/22 04:24:54;;;;;;;12.98;2.72;;;7.10;99.90;;;;;;5011156;28;20044;-77
2021/01/22 04:27:21;;;;;;;11.88;2.42;;;7.00;99.90;;;;;;5012522;28;20097;-76
2021/01/22 04:29:48;;;;;;;16.55;2.85;;;7.00;99.90;;;;;;5011015;28;20042;-76
2021/01/22 04:32:15;;;;;;;13.93;2.88;;;7.00;99.90;;;;;;5012184;28;20029;-77
2021/01/22 04:34:43;;;;;;;16.10;3.20;;;6.90;99.90;;;;;;5011061;28;20061;-77
2021/01/22 04:37:09;;;;;;;20.58;4.38;;;6.90;99.90;;;;;;5010720;28;20433;-76
2021/01/22 04:39:40;;;;;;;17.95;3.45;;;6.90;99.90;;;;;;5011968;28;20378;-76
2021/01/22 04:42:08;;;;;;;15.52;3.55;;;6.90;99.90;;;;;;5011979;28;20033;-75
2021/01/22 04:44:36;;;;;;;26.13;4.47;;;7.00;99.90;;;;;;5011449;28;20410;-74
2021/01/22 04:47:05;;;;;;;14.57;3.95;;;7.00;99.90;;;;;;5009297;28;20402;-75
2021/01/22 04:49:36;;;;;;;24.42;4.40;;;7.00;99.90;;;;;;5010970;28;20026;-76
2021/01/22 04:52:05;;;;;;;12.88;3.65;;;7.10;99.90;;;;;;4993558;28;20042;-76
2021/01/22 04:54:41;;;;;;;20.15;3.67;;;7.10;99.90;;;;;;5012024;28;20018;-75
2021/01/22 04:57:09;;;;;;;17.63;4.63;;;7.10;99.90;;;;;;4993141;28;20406;-75
2021/01/22 04:59:56;;;;;;;19.25;3.40;;;7.20;99.90;;;;;;5011634;28;20030;-77
2021/01/22 05:02:23;;;;;;;19.63;4.38;;;7.20;99.90;;;;;;5009210;28;20052;-76
2021/01/22 05:04:51;;;;;;;19.77;3.90;;;7.20;99.90;;;;;;5011621;28;20410;-78
2021/01/22 05:07:21;;;;;;;18.95;4.05;;;7.30;99.90;;;;;;5011523;28;20040;-77
2021/01/22 05:09:49;;;;;;;21.98;4.28;;;7.30;99.90;;;;;;5011025;28;20026;-75
2021/01/22 05:12:16;;;;;;;16.67;4.20;;;7.30;99.90;;;;;;5011384;28;20494;-76
2021/01/22 05:14:43;;;;;;;13.70;3.40;;;7.30;99.90;;;;;;5010946;28;20509;-76
2021/01/22 05:17:12;;;;;;;22.27;4.93;;;7.30;99.90;;;;;;4993365;28;20049;-75
2021/01/22 05:19:41;;;;;;;9.00;3.38;;;7.40;99.90;;;;;;5011755;28;20037;-75
2021/01/22 05:22:17;;;;;;;18.70;3.13;;;7.50;99.90;;;;;;5011605;28;20063;-75
2021/01/22 05:24:44;;;;;;;16.23;3.42;;;7.50;99.90;;;;;;5004334;28;20386;-75
2021/01/22 05:27:16;;;;;;;24.25;4.30;;;7.50;99.90;;;;;;5011421;28;20037;-75
2021/01/22 05:29:44;;;;;;;16.90;3.65;;;7.50;99.90;;;;;;5011302;28;20030;-75
2021/01/22 05:32:30;;;;;;;30.67;5.75;;;7.50;99.90;;;;;;5011441;28;20034;-75
2021/01/22 05:34:58;;;;;;;25.83;3.38;;;7.50;99.90;;;;;;5010703;28;20047;-76
2021/01/22 05:37:26;;;;;;;16.27;3.13;;;7.50;99.90;;;;;;5011650;28;20053;-75
2021/01/22 05:40:16;;;;;;;18.65;3.15;;;7.60;99.90;;;;;;5010325;28;20030;-76
2021/01/22 05:42:57;;;;;;;18.50;3.78;;;7.60;99.90;;;;;;5011215;28;20033;-76
2021/01/22 05:45:39;;;;;;;23.80;3.70;;;7.50;99.90;;;;;;5010213;28;20045;-76
2021/01/22 05:48:24;;;;;;;16.27;4.45;;;7.50;99.90;;;;;;4996281;28;20045;-75
2021/01/22 05:50:55;;;;;;;8.40;2.35;;;7.50;99.90;;;;;;5010710;28;20479;-76
2021/01/22 05:53:23;;;;;;;17.73;3.65;;;7.50;99.90;;;;;;5010940;28;20030;-76
2021/01/22 05:56:08;;;;;;;18.27;3.45;;;7.50;99.90;;;;;;5010512;28;20096;-75
2021/01/22 05:58:35;;;;;;;20.10;3.28;;;7.50;99.90;;;;;;5012772;28;20042;-75
2021/01/22 06:01:15;;;;;;;21.15;4.03;;;7.50;99.90;;;;;;5014639;28;20367;-76
2021/01/22 06:03:44;;;;;;;16.20;3.15;;;7.50;99.90;;;;;;5014695;28;20486;-76
2021/01/22 06:06:11;;;;;;;21.83;3.28;;;7.50;99.90;;;;;;5013735;28;20044;-76
2021/01/22 06:08:49;;;;;;;17.30;4.10;;;7.50;99.90;;;;;;5014141;28;20025;-76
2021/01/22 06:11:18;;;;;;;15.70;3.53;;;7.50;99.90;;;;;;5014924;28;20037;-75
2021/01/22 06:13:50;;;;;;;15.50;2.67;;;7.50;99.90;;;;;;5013728;28;20033;-77
2021/01/22 06:16:22;;;;;;;22.45;4.68;;;7.50;99.90;;;;;;5012538;28;20053;-76
2021/01/22 06:18:57;;;;;;;19.27;3.72;;;7.50;99.90;;;;;;5013337;28;20049;-76
2021/01/22 06:21:24;;;;;;;15.50;4.15;;;7.50;99.90;;;;;;5014237;28;20030;-75
2021/01/22 06:23:52;;;;;;;17.73;3.40;;;7.50;99.90;;;;;;4996214;28;20045;-76
2021/01/22 06:26:20;;;;;;;19.60;3.67;;;7.50;99.90;;;;;;5012756;28;20516;-76
2021/01/22 06:28:51;;;;;;;17.23;4.90;;;7.50;99.90;;;;;;5013882;28;20042;-76
2021/01/22 06:31:21;;;;;;;15.60;3.47;;;7.50;99.90;;;;;;4996495;28;20053;-76
2021/01/22 06:33:49;;;;;;;17.35;3.13;;;7.50;99.90;;;;;;5012785;28;20049;-76
2021/01/22 06:36:17;;;;;;;15.45;3.88;;;7.50;99.90;;;;;;5012694;28;20390;-76
2021/01/22 06:38:45;;;;;;;13.32;2.97;;;7.50;99.90;;;;;;5012743;28;20046;-75
2021/01/22 06:41:13;;;;;;;15.40;2.47;;;7.50;99.90;;;;;;5013273;28;20030;-77
2021/01/22 06:43:40;;;;;;;18.25;2.15;;;7.60;99.90;;;;;;5013675;28;20064;-82
2021/01/22 06:46:19;;;;;;;16.15;3.10;;;7.60;99.90;;;;;;4997183;28;20054;-82
2021/01/22 06:48:50;;;;;;;19.73;3.58;;;7.60;99.90;;;;;;5022714;28;20049;-80
2021/01/22 06:51:18;;;;;;;19.45;2.85;;;7.60;99.90;;;;;;5015736;28;20038;-80
2021/01/22 06:54:07;;;;;;;11.55;2.65;;;7.60;99.90;;;;;;5013486;28;20471;-82
2021/01/22 06:56:54;;;;;;;19.52;4.15;;;7.70;99.90;;;;;;5000866;28;20077;-82
2021/01/22 06:59:30;;;;;;;14.40;2.33;;;7.60;99.90;;;;;;5012445;28;20038;-81
2021/01/22 07:01:58;;;;;;;16.52;3.15;;;7.60;99.90;;;;;;5013062;28;20379;-82
2021/01/22 07:04:34;;;;;;;10.98;2.58;;;7.60;99.90;;;;;;5014078;28;20458;-82
2021/01/22 07:07:03;;;;;;;15.43;2.65;;;7.70;99.90;;;;;;5014013;28;20482;-83
2021/01/22 07:09:47;;;;;;;14.48;1.95;;;7.70;99.90;;;;;;5013792;28;20371;-81
2021/01/22 07:12:39;;;;;;;16.40;1.95;;;7.70;99.90;;;;;;5014445;28;20030;-83
2021/01/22 07:15:24;;;;;;;10.15;1.50;;;7.70;99.90;;;;;;4933932;29;20052;-81
2021/01/22 07:17:55;;;;;;;16.73;2.17;;;7.70;99.90;;;;;;4933242;29;20050;-82
2021/01/22 07:20:28;;;;;;;16.10;2.55;;;7.70;99.90;;;;;;4933501;29;20036;-82
2021/01/22 07:22:56;;;;;;;18.30;2.10;;;7.60;99.90;;;;;;4932919;29;20036;-81
2021/01/22 07:25:32;;;;;;;12.65;1.90;;;7.70;99.90;;;;;;4933010;29;20035;-81
2021/01/22 07:28:04;;;;;;;14.68;1.75;;;7.70;99.90;;;;;;4926525;29;20562;-82
2021/01/22 07:30:40;;;;;;;18.88;3.28;;;7.70;99.90;;;;;;4925693;29;20065;-81
2021/01/22 07:33:29;;;;;;;17.73;1.92;;;7.70;99.90;;;;;;4932961;29;20036;-80
2021/01/22 07:36:10;;;;;;;12.60;2.67;;;7.70;99.90;;;;;;4918971;29;20043;-82
2021/01/22 07:38:39;;;;;;;16.70;2.67;;;7.70;99.90;;;;;;4911206;29;20064;-84
2021/01/22 07:41:07;;;;;;;14.38;2.30;;;7.70;99.90;;;;;;4896227;29;20040;-83
2021/01/22 07:43:34;;;;;;;18.75;3.28;;;7.70;99.90;;;;;;4895124;29;20393;-81
2021/01/22 07:46:04;;;;;;;17.30;2.15;;;7.60;99.90;;;;;;4895768;29;20041;-83
2021/01/22 07:48:31;;;;;;;10.10;2.15;;;7.60;99.90;;;;;;4896106;29;20493;-82
2021/01/22 07:50:58;;;;;;;9.88;1.75;;;7.60;99.90;;;;;;4896330;28;20044;-84
2021/01/22 07:53:26;;;;;;;12.48;2.88;;;7.60;99.90;;;;;;4971715;28;20039;-82
2021/01/22 07:55:54;;;;;;;21.65;3.00;;;7.50;99.90;;;;;;4970115;28;20047;-81
2021/01/22 07:58:21;;;;;;;13.98;2.08;;;7.50;99.90;;;;;;4971868;28;20515;-82
2021/01/22 08:00:48;;;;;;;19.02;2.08;;;7.60;99.90;;;;;;4971322;28;20051;-82
2021/01/22 08:03:15;;;;;;;8.95;1.60;;;7.60;99.90;;;;;;4971979;28;20042;-83
2021/01/22 08:05:42;;;;;;;9.60;1.83;;;7.60;99.90;;;;;;4971094;28;20031;-81
2021/01/22 08:08:25;;;;;;;13.27;2.22;;;7.70;99.90;;;;;;4970497;28;20031;-80
2021/01/22 08:10:52;;;;;;;18.35;2.63;;;7.70;99.90;;;;;;4970623;28;20049;-82
2021/01/22 08:13:19;;;;;;;10.48;2.10;;;7.60;99.90;;;;;;4997282;28;20061;-83
2021/01/22 08:15:46;;;;;;;8.30;2.65;;;7.60;99.90;;;;;;5011846;28;20041;-82
2021/01/22 08:18:15;;;;;;;18.75;2.33;;;7.60;99.90;;;;;;5011040;28;20049;-81
2021/01/22 08:20:55;;;;;;;12.02;1.70;;;7.60;99.90;;;;;;5011506;28;20037;-79
2021/01/22 08:23:23;;;;;;;13.30;2.47;;;7.60;99.90;;;;;;5012156;28;20022;-78
2021/01/22 08:25:57;;;;;;;11.43;1.63;;;7.60;99.90;;;;;;5011667;28;20038;-78
2021/01/22 08:28:26;;;;;;;14.68;1.95;;;7.50;99.90;;;;;;5011418;28;20041;-77
2021/01/22 08:30:54;;;;;;;27.73;5.30;;;7.50;99.90;;;;;;5011092;28;20418;-82
2021/01/22 08:33:26;;;;;;;10.90;1.85;;;7.50;99.90;;;;;;5009702;28;20041;-80
2021/01/22 08:35:53;;;;;;;10.90;1.80;;;7.50;99.90;;;;;;5003055;28;20026;-80
2021/01/22 08:38:20;;;;;;;16.40;2.22;;;7.50;99.90;;;;;;5011522;28;20042;-81
2021/01/22 08:40:47;;;;;;;10.07;3.08;;;7.50;99.90;;;;;;5012301;28;20033;-80
2021/01/22 08:43:14;;;;;;;14.38;1.80;;;7.50;99.90;;;;;;5010960;28;20038;-80
2021/01/22 08:45:42;;;;;;;13.00;2.33;;;7.40;99.90;;;;;;5012785;28;20042;-79
2021/01/22 08:48:10;;;;;;;11.23;1.75;;;7.40;99.90;;;;;;5013751;28;20037;-83
2021/01/22 08:50:38;;;;;;;8.55;1.77;;;7.50;99.90;;;;;;5012839;28;20041;-84
2021/01/22 08:53:08;;;;;;;21.20;2.85;;;7.60;99.90;;;;;;5011101;28;20417;-78
2021/01/22 08:55:36;;;;;;;16.00;3.28;;;7.60;99.90;;;;;;5012198;28;20378;-84
2021/01/22 08:58:10;;;;;;;10.77;1.42;;;7.60;99.90;;;;;;5012073;28;20030;-81
2021/01/22 09:00:38;;;;;;;15.15;2.28;;;7.60;99.90;;;;;;5011490;28;20036;-82
2021/01/22 09:03:21;;;;;;;7.22;1.58;;;7.60;99.90;;;;;;5011147;28;20501;-81
2021/01/22 09:05:55;;;;;;;10.05;1.98;;;7.60;99.90;;;;;;5010480;28;20076;-79
2021/01/22 09:08:23;;;;;;;11.57;1.67;;;7.60;99.90;;;;;;5011648;28;20049;-80
2021/01/22 09:10:50;;;;;;;12.95;1.88;;;7.60;99.90;;;;;;5010827;28;20068;-81
2021/01/22 09:13:20;;;;;;;10.18;1.63;;;7.70;99.90;;;;;;5010824;28;20038;-81
2021/01/22 09:15:49;;;;;;;10.75;1.85;;;7.60;99.90;;;;;;5011484;28;20033;-79
2021/01/22 09:18:26;;;;;;;15.60;1.83;;;7.70;99.90;;;;;;5011569;28;20467;-81
2021/01/22 09:21:00;;;;;;;11.60;1.83;;;7.70;99.90;;;;;;5010664;28;20034;-81
2021/01/22 09:23:27;;;;;;;11.40;1.90;;;7.70;99.90;;;;;;5010099;28;20057;-80
2021/01/22 09:25:55;;;;;;;16.40;1.83;;;7.80;99.90;;;;;;5010740;28;20045;-81
2021/01/22 09:28:22;;;;;;;11.48;2.33;;;7.80;99.90;;;;;;5010603;28;20045;-81
2021/01/22 09:30:49;;;;;;;9.00;1.75;;;7.80;99.90;;;;;;5010545;28;20038;-82
2021/01/22 09:33:17;;;;;;;14.13;2.10;;;7.70;99.90;;;;;;5014494;28;20045;-82
2021/01/22 09:35:45;;;;;;;13.63;2.13;;;7.80;99.90;;;;;;5015942;28;20390;-83
2021/01/22 09:38:12;;;;;;;7.78;2.22;;;7.80;99.90;;;;;;5015738;28;20456;-83
2021/01/22 09:40:39;;;;;;;15.05;2.20;;;7.80;99.90;;;;;;4997690;28;20037;-83
2021/01/22 09:43:06;;;;;;;12.27;2.05;;;7.70;99.90;;;;;;5015339;28;20033;-82
2021/01/22 09:45:33;;;;;;;9.65;2.10;;;7.70;99.90;;;;;;5015205;28;20046;-82
2021/01/22 09:48:00;;;;;;;7.35;2.03;;;7.70;99.90;;;;;;5015199;28;20033;-82
2021/01/22 09:50:27;;;;;;;11.60;2.05;;;7.70;99.90;;;;;;5014212;28;20048;-81
2021/01/22 09:52:54;;;;;;;16.92;2.17;;;7.60;99.90;;;;;;5015150;28;20038;-81
2021/01/22 09:55:21;;;;;;;13.13;2.72;;;7.60;99.90;;;;;;5015353;28;20021;-81
2021/01/22 09:57:48;;;;;;;12.70;2.70;;;7.60;99.90;;;;;;5014876;28;20038;-80
2021/01/22 10:00:16;;;;;;;16.73;2.30;;;7.50;99.90;;;;;;5015045;28;20029;-82
2021/01/22 10:02:44;;;;;;;9.85;2.83;;;7.50;99.90;;;;;;5014135;28;20046;-82
2021/01/22 10:05:11;;;;;;;13.32;2.55;;;7.50;99.90;;;;;;5014865;28;20037;-82
2021/01/22 10:07:38;;;;;;;13.05;2.17;;;7.40;99.90;;;;;;5015042;28;20386;-81
2021/01/22 10:10:06;;;;;;;11.73;2.08;;;7.50;99.90;;;;;;5014057;28;20033;-82
2021/01/22 10:12:33;;;;;;;19.27;3.33;;;7.50;99.90;;;;;;5013927;28;20045;-79
2021/01/22 10:15:00;;;;;;;13.35;3.00;;;7.40;99.90;;;;;;5014629;28;20044;-81
2021/01/22 10:17:27;;;;;;;15.15;2.10;;;7.50;99.90;;;;;;5015637;28;20034;-79
2021/01/22 10:19:54;;;;;;;14.93;2.38;;;7.50;99.90;;;;;;5020413;28;20632;-81
2021/01/22 10:22:21;;;;;;;11.98;1.90;;;7.50;99.90;;;;;;5016978;28;20025;-81
2021/01/22 10:24:47;;;;;;;16.15;4.20;;;7.50;99.90;;;;;;5013006;28;20069;-79
2021/01/22 10:27:14;;;;;;;17.25;2.20;;;7.50;99.90;;;;;;4996800;28;20517;-81
2021/01/22 10:29:41;;;;;;;14.88;2.25;;;7.50;99.90;;;;;;5014885;28;20378;-80
2021/01/22 10:32:08;;;;;;;15.65;2.47;;;7.60;99.90;;;;;;4996657;28;20056;-82
2021/01/22 10:34:35;;;;;;;18.60;2.50;;;7.60;99.90;;;;;;5013410;28;20042;-79
2021/01/22 10:37:02;;;;;;;12.80;2.30;;;7.60;99.90;;;;;;4995631;28;20522;-83
2021/01/22 10:39:29;;;;;;;9.82;1.90;;;7.50;99.90;;;;;;5013591;28;20042;-79
2021/01/22 10:41:56;;;;;;;9.65;2.00;;;7.50;99.90;;;;;;5013970;28;20497;-78
2021/01/22 10:44:23;;;;;;;8.50;1.60;;;7.50;99.90;;;;;;4995408;28;20486;-77
2021/01/22 10:46:50;;;;;;;11.10;3.25;;;7.50;99.90;;;;;;5012497;28;20053;-78
2021/01/22 10:49:17;;;;;;;9.95;2.45;;;7.50;99.90;;;;;;5014128;28;20033;-78
2021/01/22 10:51:44;;;;;;;11.70;1.70;;;7.50;99.90;;;;;;5013335;28;20041;-79
2021/01/22 10:54:11;;;;;;;10.25;2.67;;;7.50;99.90;;;;;;5013913;28;20382;-79
2021/01/22 10:56:38;;;;;;;13.30;1.95;;;7.50;99.90;;;;;;5013635;28;20030;-79
2021/01/22 10:59:05;;;;;;;11.02;2.50;;;7.50;99.90;;;;;;5013839;28;20117;-81
2021/01/22 11:01:32;;;;;;;20.85;2.55;;;7.60;99.90;;;;;;5014046;28;20029;-79
2021/01/22 11:03:58;;;;;;;12.70;2.00;;;7.50;99.90;;;;;;5013839;28;20029;-77
2021/01/22 11:06:25;;;;;;;15.20;2.55;;;7.50;99.90;;;;;;5014126;28;20026;-80
2021/01/22 11:08:52;;;;;;;14.02;2.78;;;7.60;99.90;;;;;;5014215;28;20038;-78
2021/01/22 11:11:19;;;;;;;9.20;1.85;;;7.50;99.90;;;;;;5013964;28;20041;-80
2021/01/22 11:13:46;;;;;;;14.07;3.00;;;7.40;99.90;;;;;;5012919;28;20542;-83
2021/01/22 11:16:13;;;;;;;15.55;3.47;;;7.20;99.90;;;;;;5014050;28;20394;-80
2021/01/22 11:18:44;;;;;;;9.48;2.63;;;7.10;99.90;;;;;;5013734;28;20034;-82
2021/01/22 11:21:12;;;;;;;19.27;3.10;;;7.00;99.90;;;;;;5012736;28;20533;-82
2021/01/22 11:23:38;;;;;;;18.88;2.53;;;7.00;99.90;;;;;;5013836;28;20045;-78
2021/01/22 11:26:05;;;;;;;15.23;2.70;;;7.00;99.90;;;;;;5013117;28;20038;-83
2021/01/22 11:28:33;;;;;;;12.15;3.00;;;6.90;99.90;;;;;;5013221;28;20038;-82
2021/01/22 11:31:01;;;;;;;16.85;3.10;;;6.90;99.90;;;;;;5013196;28;20398;-82
2021/01/22 11:33:27;;;;;;;19.92;3.78;;;6.90;99.90;;;;;;5014548;28;20048;-81
2021/01/22 11:35:54;;;;;;;12.35;3.13;;;6.90;99.90;;;;;;4995212;28;20045;-82
2021/01/22 11:38:21;;;;;;;12.90;4.50;;;6.80;99.90;;;;;;5013138;28;20045;-83
2021/01/22 11:40:51;;;;;;;20.65;3.88;;;6.80;99.90;;;;;;5013289;28;20030;-80
2021/01/22 11:43:21;;;;;;;18.90;5.00;;;6.70;99.90;;;;;;4995744;28;20045;-79
2021/01/22 11:45:48;;;;;;;15.85;4.53;;;6.70;99.90;;;;;;5011949;28;20041;-82
2021/01/22 11:48:15;;;;;;;17.88;4.95;;;6.70;99.90;;;;;;5013240;28;20038;-80
2021/01/22 11:50:42;;;;;;;17.15;4.43;;;6.70;99.90;;;;;;5021430;28;20026;-80
2021/01/22 11:53:09;;;;;;;10.77;4.95;;;6.70;99.90;;;;;;5019791;28;20038;-79
2021/01/22 11:55:41;;;;;;;23.10;5.50;;;6.60;99.90;;;;;;5014343;28;20025;-82
2021/01/22 11:58:08;;;;;;;18.75;6.03;;;6.60;99.90;;;;;;5012569;28;20117;-81
2021/01/22 12:00:35;;;;;;;12.45;5.95;;;6.60;99.90;;;;;;5012700;28;20347;-81
2021/01/22 12:03:02;;;;;;;26.60;6.30;;;6.60;99.90;;;;;;5011744;28;20045;-79
2021/01/22 12:05:29;;;;;;;15.55;6.28;;;6.60;99.90;;;;;;5012604;28;20054;-82
2021/01/22 12:07:57;;;;;;;19.77;6.88;;;6.60;99.90;;;;;;5012094;28;20029;-77
2021/01/22 12:10:23;;;;;;;16.17;6.20;;;6.60;99.90;;;;;;5012386;28;20088;-80
2021/01/22 12:12:50;;;;;;;20.27;7.45;;;6.60;99.90;;;;;;5012357;28;20026;-79
2021/01/22 12:15:18;;;;;;;11.32;6.60;;;6.60;99.90;;;;;;5012529;28;20025;-78
2021/01/22 12:17:45;;;;;;;13.68;6.47;;;6.50;99.90;;;;;;5012099;28;20049;-79
2021/01/22 12:20:12;;;;;;;33.90;7.65;;;6.50;99.90;;;;;;4993919;28;20041;-79
2021/01/22 12:22:43;;;;;;;12.00;6.53;;;6.50;99.90;;;;;;4983051;28;20061;-76
2021/01/22 12:25:10;;;;;;;13.70;6.13;;;6.50;99.90;;;;;;5011745;28;20037;-77
2021/01/22 12:27:38;;;;;;;55.88;10.27;;;6.60;99.90;;;;;;5011897;28;20038;-73
2021/01/22 12:30:05;;;;;;;885.85;84.47;;;6.70;99.90;;;;;;5012075;28;20136;-85
2021/01/22 12:32:32;;;;;;;10.50;4.13;;;6.60;99.90;;;;;;5012495;28;20482;-84
2021/01/22 12:34:59;;;;;;;16.63;6.07;;;6.60;99.90;;;;;;5011648;28;20481;-77
2021/01/22 12:37:26;;;;;;;18.83;6.97;;;6.70;99.90;;;;;;5003800;28;20044;-75
2021/01/22 12:39:53;;;;;;;12.45;5.15;;;6.70;99.90;;;;;;5011260;28;20482;-75
2021/01/22 12:42:20;;;;;;;16.92;5.50;;;6.70;99.90;;;;;;5011673;28;20092;-76
2021/01/22 12:44:47;;;;;;;15.40;5.07;;;6.80;99.90;;;;;;5010834;28;20046;-75
2021/01/22 12:47:14;;;;;;;14.85;6.13;;;6.80;99.90;;;;;;5011748;28;20100;-75
2021/01/22 12:49:41;;;;;;;13.50;5.55;;;6.90;99.90;;;;;;5011831;28;20052;-75
2021/01/22 12:52:08;;;;;;;13.35;5.45;;;6.90;99.90;;;;;;5011613;28;20037;-73
2021/01/22 12:54:35;;;;;;;21.88;7.90;;;6.90;99.90;;;;;;5011091;28;20042;-74
2021/01/22 12:57:02;;;;;;;32.78;8.80;;;6.80;99.90;;;;;;5010791;28;20418;-75